sensor_id;sensor_type;location;lat;lon;timestamp;pressure;altitude;pressure_sealevel;temperature;humidity
83424;BME280;73355;49.044;8.686;2023-12-22T00:00:57;98355.50;;;9.85;68.98
83424;BME280;73355;49.044;8.686;2023-12-22T00:03:22;98355.50;;;9.85;69.50
83424;BME280;73355;49.044;8.686;2023-12-22T00:05:48;98374.09;;;9.86;70.35
83424;BME280;73355;49.044;8.686;2023-12-22T00:08:13;98396.69;;;9.83;71.42
83424;BME280;73355;49.044;8.686;2023-12-22T00:10:38;98410.88;;;9.75;72.44
83424;BME280;73355;49.044;8.686;2023-12-22T00:13:04;98402.09;;;9.71;72.54
83424;BME280;73355;49.044;8.686;2023-12-22T00:15:29;98411.59;;;9.63;72.81
83424;BME280;73355;49.044;8.686;2023-12-22T00:17:54;98417.47;;;9.61;72.42
83424;BME280;73355;49.044;8.686;2023-12-22T00:20:20;98406.81;;;9.54;72.00
83424;BME280;73355;49.044;8.686;2023-12-22T00:22:46;98421.03;;;9.58;71.87
83424;BME280;73355;49.044;8.686;2023-12-22T00:25:11;98418.25;;;9.45;71.88
83424;BME280;73355;49.044;8.686;2023-12-22T00:27:36;98434.66;;;9.42;72.38
83424;BME280;73355;49.044;8.686;2023-12-22T00:30:02;98459.44;;;9.44;72.44
83424;BME280;73355;49.044;8.686;2023-12-22T00:32:27;98455.97;;;9.27;71.04
83424;BME280;73355;49.044;8.686;2023-12-22T00:34:53;98450.38;;;9.02;71.36
83424;BME280;73355;49.044;8.686;2023-12-22T00:37:18;98448.31;;;8.90;72.14
83424;BME280;73355;49.044;8.686;2023-12-22T00:39:44;98440.78;;;8.81;71.81
83424;BME280;73355;49.044;8.686;2023-12-22T00:42:09;98435.84;;;8.76;72.44
83424;BME280;73355;49.044;8.686;2023-12-22T00:44:34;98438.22;;;8.74;72.60
83424;BME280;73355;49.044;8.686;2023-12-22T00:47:00;98440.84;;;8.78;72.79
83424;BME280;73355;49.044;8.686;2023-12-22T00:49:25;98425.56;;;8.67;72.23
83424;BME280;73355;49.044;8.686;2023-12-22T00:51:50;98432.94;;;8.67;72.24
83424;BME280;73355;49.044;8.686;2023-12-22T00:54:16;98416.34;;;8.65;72.49
83424;BME280;73355;49.044;8.686;2023-12-22T00:56:41;98406.84;;;8.73;72.87
83424;BME280;73355;49.044;8.686;2023-12-22T00:59:06;98394.16;;;8.86;72.92
83424;BME280;73355;49.044;8.686;2023-12-22T01:01:32;98396.59;;;8.97;72.80
83424;BME280;73355;49.044;8.686;2023-12-22T01:03:57;98401.59;;;9.15;71.59
83424;BME280;73355;49.044;8.686;2023-12-22T01:06:22;98391.66;;;9.24;70.88
83424;BME280;73355;49.044;8.686;2023-12-22T01:08:48;98393.09;;;9.29;70.59
83424;BME280;73355;49.044;8.686;2023-12-22T01:11:18;98395.06;;;9.28;70.81
83424;BME280;73355;49.044;8.686;2023-12-22T01:13:44;98378.31;;;9.30;70.83
83424;BME280;73355;49.044;8.686;2023-12-22T01:16:09;98406.84;;;9.38;70.86
83424;BME280;73355;49.044;8.686;2023-12-22T01:18:35;98412.59;;;9.40;71.06
83424;BME280;73355;49.044;8.686;2023-12-22T01:21:00;98415.53;;;9.45;71.53
83424;BME280;73355;49.044;8.686;2023-12-22T01:23:25;98418.19;;;9.49;70.76
83424;BME280;73355;49.044;8.686;2023-12-22T01:25:51;98416.00;;;9.44;70.76
83424;BME280;73355;49.044;8.686;2023-12-22T01:28:16;98427.69;;;9.41;70.54
83424;BME280;73355;49.044;8.686;2023-12-22T01:30:42;98433.38;;;9.46;69.63
83424;BME280;73355;49.044;8.686;2023-12-22T01:33:07;98437.09;;;9.52;69.02
83424;BME280;73355;49.044;8.686;2023-12-22T01:35:33;98437.03;;;9.56;67.61
83424;BME280;73355;49.044;8.686;2023-12-22T01:37:58;98439.06;;;9.52;68.19
83424;BME280;73355;49.044;8.686;2023-12-22T01:40:23;98442.25;;;9.63;66.78
83424;BME280;73355;49.044;8.686;2023-12-22T01:42:49;98439.63;;;9.60;nan
83424;BME280;73355;49.044;8.686;2023-12-22T01:45:14;98460.50;;;9.63;66.16
83424;BME280;73355;49.044;8.686;2023-12-22T01:47:40;98450.31;;;9.67;64.69
83424;BME280;73355;49.044;8.686;2023-12-22T01:50:05;98435.72;;;9.61;64.23
83424;BME280;73355;49.044;8.686;2023-12-22T01:52:31;98443.78;;;9.64;63.87
83424;BME280;73355;49.044;8.686;2023-12-22T01:54:57;98463.47;;;9.68;62.86
83424;BME280;73355;49.044;8.686;2023-12-22T01:57:22;98454.34;;;9.62;62.87
83424;BME280;73355;49.044;8.686;2023-12-22T01:59:48;98451.63;;;9.62;63.14
83424;BME280;73355;49.044;8.686;2023-12-22T02:02:13;98448.97;;;9.59;62.72
83424;BME280;73355;49.044;8.686;2023-12-22T02:04:39;98455.78;;;9.50;63.05
83424;BME280;73355;49.044;8.686;2023-12-22T02:07:06;98465.28;;;9.59;62.00
83424;BME280;73355;49.044;8.686;2023-12-22T02:09:34;98447.72;;;9.47;62.48
83424;BME280;73355;49.044;8.686;2023-12-22T02:11:59;98463.59;;;9.48;62.15
83424;BME280;73355;49.044;8.686;2023-12-22T02:14:25;98457.66;;;9.53;61.83
83424;BME280;73355;49.044;8.686;2023-12-22T02:19:45;98468.34;;;9.44;62.25
83424;BME280;73355;49.044;8.686;2023-12-22T02:22:11;98450.38;;;9.50;61.70
83424;BME280;73355;49.044;8.686;2023-12-22T02:24:38;98459.59;;;9.53;61.70
83424;BME280;73355;49.044;8.686;2023-12-22T02:29:36;98438.91;;;9.43;62.18
83424;BME280;73355;49.044;8.686;2023-12-22T02:32:07;98468.44;;;9.41;62.66
83424;BME280;73355;49.044;8.686;2023-12-22T02:34:36;98475.81;;;9.40;62.82
83424;BME280;73355;49.044;8.686;2023-12-22T02:37:07;98462.22;;;9.40;62.86
83424;BME280;73355;49.044;8.686;2023-12-22T02:39:33;98460.38;;;9.37;63.40
83424;BME280;73355;49.044;8.686;2023-12-22T02:42:03;98441.72;;;9.39;63.96
83424;BME280;73355;49.044;8.686;2023-12-22T02:44:30;98444.84;;;9.38;64.42
83424;BME280;73355;49.044;8.686;2023-12-22T02:46:56;98451.56;;;9.33;64.88
83424;BME280;73355;49.044;8.686;2023-12-22T02:49:23;98450.88;;;9.29;65.45
83424;BME280;73355;49.044;8.686;2023-12-22T02:51:48;98463.44;;;9.39;65.55
83424;BME280;73355;49.044;8.686;2023-12-22T02:54:13;98461.97;;;9.35;66.09
83424;BME280;73355;49.044;8.686;2023-12-22T02:56:39;98463.25;;;9.30;66.05
83424;BME280;73355;49.044;8.686;2023-12-22T02:59:04;98439.94;;;9.33;66.44
83424;BME280;73355;49.044;8.686;2023-12-22T03:01:29;98462.75;;;9.19;66.58
83424;BME280;73355;49.044;8.686;2023-12-22T03:03:55;98475.66;;;9.15;67.19
83424;BME280;73355;49.044;8.686;2023-12-22T03:06:20;98475.16;;;9.20;67.19
83424;BME280;73355;49.044;8.686;2023-12-22T03:08:45;98473.09;;;9.24;67.25
83424;BME280;73355;49.044;8.686;2023-12-22T03:11:11;98472.34;;;9.24;67.40
83424;BME280;73355;49.044;8.686;2023-12-22T03:13:36;98471.66;;;9.20;67.18
83424;BME280;73355;49.044;8.686;2023-12-22T03:16:02;98481.84;;;9.32;66.67
83424;BME280;73355;49.044;8.686;2023-12-22T03:18:27;98471.25;;;9.21;66.94
83424;BME280;73355;49.044;8.686;2023-12-22T03:20:52;98476.59;;;9.25;67.22
83424;BME280;73355;49.044;8.686;2023-12-22T03:23:17;98470.50;;;9.21;67.16
83424;BME280;73355;49.044;8.686;2023-12-22T03:25:43;98463.19;;;9.18;67.31
83424;BME280;73355;49.044;8.686;2023-12-22T03:28:08;98462.34;;;9.21;66.66
83424;BME280;73355;49.044;8.686;2023-12-22T03:30:33;98466.66;;;9.18;66.94
83424;BME280;73355;49.044;8.686;2023-12-22T03:33:01;98477.00;;;9.23;66.13
83424;BME280;73355;49.044;8.686;2023-12-22T03:35:26;98482.28;;;9.30;65.40
83424;BME280;73355;49.044;8.686;2023-12-22T03:37:52;98502.66;;;9.22;65.62
83424;BME280;73355;49.044;8.686;2023-12-22T03:40:17;98492.72;;;9.16;66.50
83424;BME280;73355;49.044;8.686;2023-12-22T03:42:42;98488.63;;;9.24;66.52
83424;BME280;73355;49.044;8.686;2023-12-22T03:45:08;98495.34;;;9.19;66.01
83424;BME280;73355;49.044;8.686;2023-12-22T03:47:33;98501.28;;;9.14;66.70
83424;BME280;73355;49.044;8.686;2023-12-22T03:49:58;98483.78;;;8.99;67.61
83424;BME280;73355;49.044;8.686;2023-12-22T03:52:24;98486.31;;;8.90;68.58
83424;BME280;73355;49.044;8.686;2023-12-22T03:54:49;98473.75;;;8.80;69.17
83424;BME280;73355;49.044;8.686;2023-12-22T03:57:14;98476.81;;;8.82;69.69
83424;BME280;73355;49.044;8.686;2023-12-22T03:59:40;98486.91;;;8.81;69.92
83424;BME280;73355;49.044;8.686;2023-12-22T04:02:05;98482.50;;;8.87;69.61
83424;BME280;73355;49.044;8.686;2023-12-22T04:04:30;98494.94;;;8.85;69.59
83424;BME280;73355;49.044;8.686;2023-12-22T04:06:56;98495.81;;;8.82;69.51
83424;BME280;73355;49.044;8.686;2023-12-22T04:09:22;98506.97;;;8.84;69.34
83424;BME280;73355;49.044;8.686;2023-12-22T04:11:47;98513.94;;;8.85;69.33
83424;BME280;73355;49.044;8.686;2023-12-22T04:14:12;98499.19;;;8.86;68.97
83424;BME280;73355;49.044;8.686;2023-12-22T04:16:38;98503.72;;;8.92;68.52
83424;BME280;73355;49.044;8.686;2023-12-22T04:19:03;98513.72;;;8.95;68.49
83424;BME280;73355;49.044;8.686;2023-12-22T04:21:28;98485.03;;;8.94;68.56
83424;BME280;73355;49.044;8.686;2023-12-22T04:23:54;98478.78;;;8.97;68.31
83424;BME280;73355;49.044;8.686;2023-12-22T04:26:19;98468.94;;;8.87;68.41
83424;BME280;73355;49.044;8.686;2023-12-22T04:28:44;98500.06;;;8.83;68.68
83424;BME280;73355;49.044;8.686;2023-12-22T04:31:10;98490.72;;;8.84;68.80
83424;BME280;73355;49.044;8.686;2023-12-22T04:33:35;98492.19;;;8.88;68.61
83424;BME280;73355;49.044;8.686;2023-12-22T04:36:00;98500.78;;;8.83;69.18
83424;BME280;73355;49.044;8.686;2023-12-22T04:38:26;98486.41;;;8.86;69.03
83424;BME280;73355;49.044;8.686;2023-12-22T04:40:51;98492.50;;;8.90;68.54
83424;BME280;73355;49.044;8.686;2023-12-22T04:43:16;98502.31;;;8.84;68.67
83424;BME280;73355;49.044;8.686;2023-12-22T04:45:41;98487.34;;;8.96;68.40
83424;BME280;73355;49.044;8.686;2023-12-22T04:48:07;98492.59;;;8.87;68.49
83424;BME280;73355;49.044;8.686;2023-12-22T04:50:32;98489.63;;;8.81;68.71
83424;BME280;73355;49.044;8.686;2023-12-22T04:52:57;98500.38;;;8.85;68.57
83424;BME280;73355;49.044;8.686;2023-12-22T04:55:23;98528.69;;;8.84;67.85
83424;BME280;73355;49.044;8.686;2023-12-22T04:57:48;98533.78;;;8.82;67.81
83424;BME280;73355;49.044;8.686;2023-12-22T05:00:14;98511.50;;;8.90;67.66
83424;BME280;73355;49.044;8.686;2023-12-22T05:02:39;98526.50;;;8.95;67.18
83424;BME280;73355;49.044;8.686;2023-12-22T05:05:05;98521.09;;;8.95;67.09
83424;BME280;73355;49.044;8.686;2023-12-22T05:07:30;98509.56;;;8.91;67.29
83424;BME280;73355;49.044;8.686;2023-12-22T05:09:56;98512.09;;;8.82;67.17
83424;BME280;73355;49.044;8.686;2023-12-22T05:12:21;98509.28;;;8.85;67.53
83424;BME280;73355;49.044;8.686;2023-12-22T05:14:46;98510.47;;;8.84;67.45
83424;BME280;73355;49.044;8.686;2023-12-22T05:17:12;98520.06;;;8.89;67.69
83424;BME280;73355;49.044;8.686;2023-12-22T05:19:37;98509.19;;;8.89;67.31
83424;BME280;73355;49.044;8.686;2023-12-22T05:22:03;98519.06;;;8.99;67.10
83424;BME280;73355;49.044;8.686;2023-12-22T05:24:28;98503.06;;;9.04;66.58
83424;BME280;73355;49.044;8.686;2023-12-22T05:26:54;98511.59;;;9.03;67.01
83424;BME280;73355;49.044;8.686;2023-12-22T05:29:19;98513.66;;;8.99;66.94
83424;BME280;73355;49.044;8.686;2023-12-22T05:31:45;98511.97;;;9.05;66.48
83424;BME280;73355;49.044;8.686;2023-12-22T05:34:10;98508.81;;;9.06;66.61
83424;BME280;73355;49.044;8.686;2023-12-22T05:36:36;98509.41;;;8.98;66.62
83424;BME280;73355;49.044;8.686;2023-12-22T05:39:01;98494.47;;;9.06;66.26
83424;BME280;73355;49.044;8.686;2023-12-22T05:41:26;98522.81;;;9.05;66.17
83424;BME280;73355;49.044;8.686;2023-12-22T05:43:52;98524.69;;;9.08;66.23
83424;BME280;73355;49.044;8.686;2023-12-22T05:46:17;98521.03;;;9.15;65.71
83424;BME280;73355;49.044;8.686;2023-12-22T05:48:43;98534.00;;;9.07;65.87
83424;BME280;73355;49.044;8.686;2023-12-22T05:51:08;98539.38;;;9.10;65.27
83424;BME280;73355;49.044;8.686;2023-12-22T05:53:39;98544.19;;;9.19;64.90
83424;BME280;73355;49.044;8.686;2023-12-22T05:56:06;98543.53;;;9.15;65.07
83424;BME280;73355;49.044;8.686;2023-12-22T05:58:31;98529.53;;;9.17;65.62
83424;BME280;73355;49.044;8.686;2023-12-22T06:00:56;98552.19;;;9.26;64.56
83424;BME280;73355;49.044;8.686;2023-12-22T06:03:22;98544.41;;;9.28;64.82
83424;BME280;73355;49.044;8.686;2023-12-22T06:05:47;98541.25;;;9.30;64.31
83424;BME280;73355;49.044;8.686;2023-12-22T06:08:13;98560.34;;;9.26;64.28
83424;BME280;73355;49.044;8.686;2023-12-22T06:10:38;98559.31;;;9.36;63.72
83424;BME280;73355;49.044;8.686;2023-12-22T06:13:03;98554.06;;;9.45;63.29
83424;BME280;73355;49.044;8.686;2023-12-22T06:15:30;98556.97;;;9.38;63.19
83424;BME280;73355;49.044;8.686;2023-12-22T06:17:55;98575.72;;;9.33;63.33
83424;BME280;73355;49.044;8.686;2023-12-22T06:20:21;98572.50;;;9.38;63.14
83424;BME280;73355;49.044;8.686;2023-12-22T06:22:46;98586.75;;;9.42;62.79
83424;BME280;73355;49.044;8.686;2023-12-22T06:25:11;98583.94;;;9.45;62.56
83424;BME280;73355;49.044;8.686;2023-12-22T06:27:37;98563.06;;;9.42;62.66
83424;BME280;73355;49.044;8.686;2023-12-22T06:30:04;98580.53;;;9.41;62.74
83424;BME280;73355;49.044;8.686;2023-12-22T06:32:30;98587.16;;;9.40;62.47
83424;BME280;73355;49.044;8.686;2023-12-22T06:34:55;98583.94;;;9.45;61.85
83424;BME280;73355;49.044;8.686;2023-12-22T06:37:20;98597.88;;;9.47;61.79
83424;BME280;73355;49.044;8.686;2023-12-22T06:39:45;98603.22;;;9.51;61.61
83424;BME280;73355;49.044;8.686;2023-12-22T06:42:11;98602.63;;;9.43;62.16
83424;BME280;73355;49.044;8.686;2023-12-22T06:44:37;98613.41;;;9.47;62.15
83424;BME280;73355;49.044;8.686;2023-12-22T06:47:03;98614.09;;;9.51;62.33
83424;BME280;73355;49.044;8.686;2023-12-22T06:49:28;98609.16;;;9.46;62.10
83424;BME280;73355;49.044;8.686;2023-12-22T06:51:54;98619.84;;;9.53;62.38
83424;BME280;73355;49.044;8.686;2023-12-22T06:54:19;98626.16;;;9.50;62.36
83424;BME280;73355;49.044;8.686;2023-12-22T06:56:44;98618.50;;;9.45;62.77
83424;BME280;73355;49.044;8.686;2023-12-22T06:59:10;98614.66;;;9.42;63.20
83424;BME280;73355;49.044;8.686;2023-12-22T07:01:37;98624.69;;;9.45;63.51
83424;BME280;73355;49.044;8.686;2023-12-22T07:04:03;98630.19;;;9.42;63.44
83424;BME280;73355;49.044;8.686;2023-12-22T07:06:30;98637.25;;;9.39;64.03
83424;BME280;73355;49.044;8.686;2023-12-22T07:11:44;98643.34;;;9.27;64.82
83424;BME280;73355;49.044;8.686;2023-12-22T07:14:10;98624.31;;;9.27;65.30
83424;BME280;73355;49.044;8.686;2023-12-22T07:16:35;98636.38;;;9.26;65.57
83424;BME280;73355;49.044;8.686;2023-12-22T07:19:01;98629.00;;;9.27;66.21
83424;BME280;73355;49.044;8.686;2023-12-22T07:21:26;98639.91;;;9.23;66.12
83424;BME280;73355;49.044;8.686;2023-12-22T07:23:52;98641.03;;;9.26;66.65
83424;BME280;73355;49.044;8.686;2023-12-22T07:26:17;98639.03;;;9.10;67.31
83424;BME280;73355;49.044;8.686;2023-12-22T07:28:42;98640.56;;;9.11;67.62
83424;BME280;73355;49.044;8.686;2023-12-22T07:31:08;98658.03;;;9.10;67.95
83424;BME280;73355;49.044;8.686;2023-12-22T07:33:33;98650.72;;;9.07;68.39
83424;BME280;73355;49.044;8.686;2023-12-22T07:35:58;98659.56;;;9.11;68.50
83424;BME280;73355;49.044;8.686;2023-12-22T07:38:24;98673.84;;;9.15;68.95
83424;BME280;73355;49.044;8.686;2023-12-22T07:40:49;98676.56;;;9.15;70.05
83424;BME280;73355;49.044;8.686;2023-12-22T07:43:15;98667.13;;;9.00;70.84
83424;BME280;73355;49.044;8.686;2023-12-22T07:45:40;98674.69;;;8.92;71.92
83424;BME280;73355;49.044;8.686;2023-12-22T07:48:06;98680.22;;;8.85;72.87
83424;BME280;73355;49.044;8.686;2023-12-22T07:50:32;98676.94;;;8.74;73.85
83424;BME280;73355;49.044;8.686;2023-12-22T07:52:57;98670.13;;;8.66;74.46
83424;BME280;73355;49.044;8.686;2023-12-22T07:55:23;98670.88;;;8.66;75.09
83424;BME280;73355;49.044;8.686;2023-12-22T07:57:49;98691.97;;;8.59;75.37
83424;BME280;73355;49.044;8.686;2023-12-22T08:00:15;98705.66;;;8.52;75.91
83424;BME280;73355;49.044;8.686;2023-12-22T08:02:41;98716.78;;;8.57;76.35
83424;BME280;73355;49.044;8.686;2023-12-22T08:05:06;98709.47;;;8.54;76.39
83424;BME280;73355;49.044;8.686;2023-12-22T08:07:32;98702.66;;;8.46;76.42
83424;BME280;73355;49.044;8.686;2023-12-22T08:09:57;98706.94;;;8.44;76.92
83424;BME280;73355;49.044;8.686;2023-12-22T08:12:22;98722.50;;;8.40;77.10
83424;BME280;73355;49.044;8.686;2023-12-22T08:14:48;98723.28;;;8.40;77.42
83424;BME280;73355;49.044;8.686;2023-12-22T08:17:13;98723.69;;;8.39;77.42
83424;BME280;73355;49.044;8.686;2023-12-22T08:19:39;98708.94;;;8.40;77.49
83424;BME280;73355;49.044;8.686;2023-12-22T08:22:10;98714.66;;;8.45;77.95
83424;BME280;73355;49.044;8.686;2023-12-22T08:24:38;98701.50;;;8.44;77.64
83424;BME280;73355;49.044;8.686;2023-12-22T08:27:04;98715.03;;;8.47;77.77
83424;BME280;73355;49.044;8.686;2023-12-22T08:29:31;98706.34;;;8.56;77.66
83424;BME280;73355;49.044;8.686;2023-12-22T08:31:56;98710.59;;;8.57;77.58
83424;BME280;73355;49.044;8.686;2023-12-22T08:34:22;98721.56;;;8.50;77.45
83424;BME280;73355;49.044;8.686;2023-12-22T08:36:47;98716.31;;;8.39;77.48
83424;BME280;73355;49.044;8.686;2023-12-22T08:39:12;98709.25;;;8.45;77.89
83424;BME280;73355;49.044;8.686;2023-12-22T08:41:37;98695.31;;;8.43;77.94
83424;BME280;73355;49.044;8.686;2023-12-22T08:44:04;98701.00;;;8.52;77.62
83424;BME280;73355;49.044;8.686;2023-12-22T08:46:30;98704.94;;;8.48;77.61
83424;BME280;73355;49.044;8.686;2023-12-22T08:48:56;98716.91;;;8.50;77.74
83424;BME280;73355;49.044;8.686;2023-12-22T08:51:22;98710.22;;;8.55;77.41
83424;BME280;73355;49.044;8.686;2023-12-22T08:53:47;98713.53;;;8.66;76.51
83424;BME280;73355;49.044;8.686;2023-12-22T08:56:12;98715.06;;;8.67;75.35
83424;BME280;73355;49.044;8.686;2023-12-22T08:58:38;98730.53;;;8.70;75.41
83424;BME280;73355;49.044;8.686;2023-12-22T09:01:03;98728.91;;;8.73;74.69
83424;BME280;73355;49.044;8.686;2023-12-22T09:03:32;98733.16;;;8.74;74.50
83424;BME280;73355;49.044;8.686;2023-12-22T09:05:57;98730.81;;;8.76;74.48
83424;BME280;73355;49.044;8.686;2023-12-22T09:08:22;98731.03;;;8.85;74.27
83424;BME280;73355;49.044;8.686;2023-12-22T09:10:48;98728.53;;;8.94;73.29
83424;BME280;73355;49.044;8.686;2023-12-22T09:13:15;98726.84;;;9.00;72.48
83424;BME280;73355;49.044;8.686;2023-12-22T09:15:40;98719.63;;;8.93;72.52
83424;BME280;73355;49.044;8.686;2023-12-22T09:18:06;98709.97;;;8.92;72.63
83424;BME280;73355;49.044;8.686;2023-12-22T09:20:32;98711.78;;;8.99;72.20
83424;BME280;73355;49.044;8.686;2023-12-22T09:22:58;98717.47;;;9.04;71.44
83424;BME280;73355;49.044;8.686;2023-12-22T09:25:23;98734.09;;;9.06;70.90
83424;BME280;73355;49.044;8.686;2023-12-22T09:27:49;98728.91;;;9.16;70.52
83424;BME280;73355;49.044;8.686;2023-12-22T09:30:14;98719.34;;;9.07;70.66
83424;BME280;73355;49.044;8.686;2023-12-22T09:32:40;98727.72;;;9.17;69.69
83424;BME280;73355;49.044;8.686;2023-12-22T09:35:05;98729.72;;;9.12;69.81
83424;BME280;73355;49.044;8.686;2023-12-22T09:37:31;98733.16;;;9.17;68.93
83424;BME280;73355;49.044;8.686;2023-12-22T09:39:56;98730.44;;;9.17;69.38
83424;BME280;73355;49.044;8.686;2023-12-22T09:42:24;98733.75;;;9.24;68.63
83424;BME280;73355;49.044;8.686;2023-12-22T09:44:53;98724.78;;;9.27;68.24
83424;BME280;73355;49.044;8.686;2023-12-22T09:47:19;98724.03;;;9.27;68.54
83424;BME280;73355;49.044;8.686;2023-12-22T09:49:45;98728.75;;;9.42;67.90
83424;BME280;73355;49.044;8.686;2023-12-22T09:52:12;98740.50;;;9.36;67.76
83424;BME280;73355;49.044;8.686;2023-12-22T09:54:39;98721.22;;;9.30;68.19
83424;BME280;73355;49.044;8.686;2023-12-22T09:57:05;98720.81;;;9.32;68.11
83424;BME280;73355;49.044;8.686;2023-12-22T09:59:32;98723.63;;;9.28;68.24
83424;BME280;73355;49.044;8.686;2023-12-22T10:01:59;98724.06;;;9.43;67.01
83424;BME280;73355;49.044;8.686;2023-12-22T10:04:27;98716.63;;;9.47;67.24
83424;BME280;73355;49.044;8.686;2023-12-22T10:06:53;98708.88;;;9.45;66.92
83424;BME280;73355;49.044;8.686;2023-12-22T10:09:23;98713.22;;;9.43;66.83
83424;BME280;73355;49.044;8.686;2023-12-22T10:11:52;98702.13;;;9.53;66.67
83424;BME280;73355;49.044;8.686;2023-12-22T10:14:18;98713.75;;;9.54;66.23
83424;BME280;73355;49.044;8.686;2023-12-22T10:16:49;98699.81;;;9.52;66.56
83424;BME280;73355;49.044;8.686;2023-12-22T10:19:15;98696.59;;;9.57;66.20
83424;BME280;73355;49.044;8.686;2023-12-22T10:21:40;98684.28;;;9.52;67.04
83424;BME280;73355;49.044;8.686;2023-12-22T10:24:05;98686.84;;;9.60;66.29
83424;BME280;73355;49.044;8.686;2023-12-22T10:26:31;98676.13;;;9.52;66.89
83424;BME280;73355;49.044;8.686;2023-12-22T10:28:56;98684.03;;;9.63;67.27
83424;BME280;73355;49.044;8.686;2023-12-22T10:31:22;98696.81;;;9.66;67.21
83424;BME280;73355;49.044;8.686;2023-12-22T10:33:47;98676.66;;;9.64;67.41
83424;BME280;73355;49.044;8.686;2023-12-22T10:36:13;98674.13;;;9.57;67.75
83424;BME280;73355;49.044;8.686;2023-12-22T10:38:39;98693.59;;;9.71;68.16
83424;BME280;73355;49.044;8.686;2023-12-22T10:41:06;98672.84;;;9.61;68.60
83424;BME280;73355;49.044;8.686;2023-12-22T10:43:37;98680.88;;;9.48;69.54
83424;BME280;73355;49.044;8.686;2023-12-22T10:46:03;98666.13;;;9.49;70.15
83424;BME280;73355;49.044;8.686;2023-12-22T10:48:28;98669.66;;;9.46;70.74
83424;BME280;73355;49.044;8.686;2023-12-22T10:50:54;98662.03;;;9.41;71.56
83424;BME280;73355;49.044;8.686;2023-12-22T10:53:21;98665.91;;;9.40;72.10
83424;BME280;73355;49.044;8.686;2023-12-22T10:55:47;98654.09;;;9.31;72.40
83424;BME280;73355;49.044;8.686;2023-12-22T10:58:16;98659.34;;;9.22;73.32
83424;BME280;73355;49.044;8.686;2023-12-22T11:00:44;98664.63;;;9.29;73.62
83424;BME280;73355;49.044;8.686;2023-12-22T11:03:12;98648.53;;;9.18;74.04
83424;BME280;73355;49.044;8.686;2023-12-22T11:05:44;98647.25;;;9.06;74.52
83424;BME280;73355;49.044;8.686;2023-12-22T11:08:11;98641.97;;;8.99;75.18
83424;BME280;73355;49.044;8.686;2023-12-22T11:10:41;98631.22;;;9.12;75.83
83424;BME280;73355;49.044;8.686;2023-12-22T11:13:09;98654.28;;;9.04;76.08
83424;BME280;73355;49.044;8.686;2023-12-22T11:15:34;98623.38;;;8.98;76.30
83424;BME280;73355;49.044;8.686;2023-12-22T11:18:01;98611.69;;;9.01;76.44
83424;BME280;73355;49.044;8.686;2023-12-22T11:20:27;98635.84;;;8.95;76.81
83424;BME280;73355;49.044;8.686;2023-12-22T11:22:54;98626.38;;;8.84;76.85
83424;BME280;73355;49.044;8.686;2023-12-22T11:25:22;98610.72;;;8.91;77.23
83424;BME280;73355;49.044;8.686;2023-12-22T11:27:48;98604.88;;;8.93;77.10
83424;BME280;73355;49.044;8.686;2023-12-22T11:30:14;98588.88;;;8.98;76.98
83424;BME280;73355;49.044;8.686;2023-12-22T11:32:39;98576.56;;;8.94;77.15
83424;BME280;73355;49.044;8.686;2023-12-22T11:35:05;98583.09;;;8.96;77.25
83424;BME280;73355;49.044;8.686;2023-12-22T11:37:35;98571.41;;;8.99;77.08
83424;BME280;73355;49.044;8.686;2023-12-22T11:40:00;98584.34;;;8.92;77.68
83424;BME280;73355;49.044;8.686;2023-12-22T11:42:30;98570.63;;;8.99;77.81
83424;BME280;73355;49.044;8.686;2023-12-22T11:45:02;98564.84;;;8.97;77.97
83424;BME280;73355;49.044;8.686;2023-12-22T11:47:27;98559.56;;;8.90;78.37
83424;BME280;73355;49.044;8.686;2023-12-22T11:49:53;98553.81;;;8.88;78.55
83424;BME280;73355;49.044;8.686;2023-12-22T11:52:25;98551.16;;;9.04;77.91
83424;BME280;73355;49.044;8.686;2023-12-22T11:54:52;98539.25;;;8.98;77.92
83424;BME280;73355;49.044;8.686;2023-12-22T11:57:41;98547.13;;;8.92;78.04
83424;BME280;73355;49.044;8.686;2023-12-22T12:00:08;98535.28;;;9.02;78.37
83424;BME280;73355;49.044;8.686;2023-12-22T12:02:37;98534.91;;;9.00;78.09
83424;BME280;73355;49.044;8.686;2023-12-22T12:05:07;98533.19;;;9.10;78.03
83424;BME280;73355;49.044;8.686;2023-12-22T12:07:41;98527.28;;;8.95;78.18
83424;BME280;73355;49.044;8.686;2023-12-22T12:10:13;98527.47;;;9.04;78.39
83424;BME280;73355;49.044;8.686;2023-12-22T12:13:11;98527.22;;;8.99;78.71
83424;BME280;73355;49.044;8.686;2023-12-22T12:15:41;98511.97;;;9.05;78.75
83424;BME280;73355;49.044;8.686;2023-12-22T12:18:06;98507.56;;;9.11;78.55
83424;BME280;73355;49.044;8.686;2023-12-22T12:20:32;98532.91;;;9.04;78.67
83424;BME280;73355;49.044;8.686;2023-12-22T12:22:57;98511.69;;;8.99;78.94
83424;BME280;73355;49.044;8.686;2023-12-22T12:25:25;98508.75;;;9.10;79.46
83424;BME280;73355;49.044;8.686;2023-12-22T12:28:02;98520.88;;;9.22;79.32
83424;BME280;73355;49.044;8.686;2023-12-22T12:30:28;98501.88;;;9.05;79.50
83424;BME280;73355;49.044;8.686;2023-12-22T12:32:54;98513.81;;;9.08;79.86
83424;BME280;73355;49.044;8.686;2023-12-22T12:35:20;98505.16;;;9.13;79.56
83424;BME280;73355;49.044;8.686;2023-12-22T12:37:47;98494.16;;;9.20;79.41
83424;BME280;73355;49.044;8.686;2023-12-22T12:40:16;98488.06;;;9.16;79.82
83424;BME280;73355;49.044;8.686;2023-12-22T12:42:43;98471.41;;;9.14;79.75
83424;BME280;73355;49.044;8.686;2023-12-22T12:45:09;98479.13;;;9.16;79.68
83424;BME280;73355;49.044;8.686;2023-12-22T12:47:34;98471.56;;;9.23;79.51
83424;BME280;73355;49.044;8.686;2023-12-22T12:50:00;98485.41;;;9.29;79.75
83424;BME280;73355;49.044;8.686;2023-12-22T12:52:26;98466.66;;;9.18;79.95
83424;BME280;73355;49.044;8.686;2023-12-22T12:54:52;98471.00;;;9.16;80.26
83424;BME280;73355;49.044;8.686;2023-12-22T12:57:18;98499.31;;;9.31;80.07
83424;BME280;73355;49.044;8.686;2023-12-22T12:59:45;98490.84;;;9.29;80.06
83424;BME280;73355;49.044;8.686;2023-12-22T13:02:11;98480.84;;;9.26;80.35
83424;BME280;73355;49.044;8.686;2023-12-22T13:04:37;98488.47;;;9.31;80.59
83424;BME280;73355;49.044;8.686;2023-12-22T13:07:05;98486.69;;;9.40;80.26
83424;BME280;73355;49.044;8.686;2023-12-22T13:09:48;98493.47;;;9.32;80.46
83424;BME280;73355;49.044;8.686;2023-12-22T13:12:14;98482.38;;;9.27;80.82